createdAt,value
2019-06-08T00:00:33.598Z,82.83
2019-06-08T00:05:36.955Z,85.33
2019-06-08T00:10:40.073Z,88.84
2019-06-08T00:15:43.279Z,88.81
2019-06-08T00:20:46.434Z,85.68
2019-06-08T00:25:49.540Z,84.86
2019-06-08T00:30:52.994Z,84.32
2019-06-08T00:35:56.145Z,84.97
2019-06-08T00:41:00.537Z,84.48
2019-06-08T00:46:05.061Z,89.59
2019-06-08T00:51:08.877Z,89.02
2019-06-08T00:56:11.958Z,87.45
2019-06-08T01:01:15.462Z,87.86
2019-06-08T01:06:21.025Z,87.53
2019-06-08T01:11:24.794Z,89.64
2019-06-08T01:16:29.254Z,87.52
2019-06-08T01:21:34.470Z,86.07
2019-06-08T01:26:37.568Z,86.53
2019-06-08T01:31:42.136Z,86.08
2019-06-08T01:36:45.514Z,86.78
2019-06-08T01:41:52.235Z,87.06
2019-06-08T01:46:58.037Z,89.25
2019-06-08T01:52:02.281Z,91.35
2019-06-08T01:57:05.452Z,90.73
2019-06-08T02:02:08.607Z,91.21
2019-06-08T02:07:13.082Z,90.50
2019-06-08T02:12:16.375Z,91.13
2019-06-08T02:17:19.487Z,92.00
2019-06-08T02:22:22.640Z,89.50
2019-06-08T02:27:27.196Z,92.43
2019-06-08T02:32:31.578Z,92.29
2019-06-08T02:37:37.737Z,92.69
2019-06-08T02:42:40.554Z,90.51
2019-06-08T02:47:43.658Z,90.07
2019-06-08T02:52:50.388Z,88.12
2019-06-08T02:57:54.141Z,88.76
2019-06-08T03:03:01.219Z,88.24
2019-06-08T03:08:06.697Z,87.81
2019-06-08T03:13:10.480Z,90.60
2019-06-08T03:18:13.488Z,91.02
2019-06-08T03:23:17.666Z,92.03
2019-06-08T03:28:21.062Z,92.77
2019-06-08T03:33:24.386Z,90.92
2019-06-08T03:38:27.633Z,89.21
2019-06-08T03:43:30.775Z,89.35
2019-06-08T03:48:35.016Z,88.09
2019-06-08T03:53:42.022Z,89.42
2019-06-08T03:58:47.979Z,89.67
2019-06-08T04:03:50.440Z,88.95
2019-06-08T04:08:53.625Z,89.18
2019-06-08T04:13:57.975Z,88.75
2019-06-08T04:19:01.207Z,86.90
2019-06-08T04:24:04.348Z,86.36
2019-06-08T04:29:07.380Z,84.54
2019-06-08T04:34:11.757Z,84.66
2019-06-08T04:39:14.928Z,83.79
2019-06-08T04:44:19.374Z,83.93
2019-06-08T04:49:25.132Z,80.99
2019-06-08T04:54:30.076Z,82.52
2019-06-08T04:59:33.126Z,81.53
2019-06-08T05:04:36.253Z,79.15
2019-06-08T05:09:40.991Z,78.86
2019-06-08T05:14:45.480Z,77.84
2019-06-08T05:19:50.517Z,79.10
2019-06-08T05:24:53.952Z,77.21
2019-06-08T05:29:58.388Z,73.29
2019-06-08T05:35:01.554Z,72.61
2019-06-08T05:40:05.286Z,73.26
2019-06-08T05:45:09.094Z,71.71
2019-06-08T05:50:12.592Z,71.87
2019-06-08T05:55:18.810Z,71.19
2019-06-08T06:00:22.392Z,69.19
2019-06-08T06:05:25.917Z,67.34
2019-06-08T06:10:30.248Z,66.15
2019-06-08T06:15:33.447Z,64.28
2019-06-08T06:20:36.701Z,65.03
2019-06-08T06:25:41.299Z,63.64
2019-06-08T06:30:46.561Z,63.37
2019-06-08T06:35:52.012Z,62.15
2019-06-08T06:40:54.536Z,60.00
2019-06-08T06:45:58.905Z,60.95
2019-06-08T06:51:02.650Z,62.04
2019-06-08T06:56:05.984Z,61.24
2019-06-08T07:01:09.181Z,60.87
2019-06-08T07:06:12.639Z,60.26
2019-06-08T07:11:15.634Z,58.96
2019-06-08T07:16:19.456Z,56.47
2019-06-08T07:21:23.061Z,58.93
2019-06-08T07:26:26.285Z,55.11
2019-06-08T07:31:29.432Z,53.11
2019-06-08T07:36:32.838Z,54.70
2019-06-08T07:41:36.018Z,55.17
2019-06-08T07:46:40.235Z,53.56
2019-06-08T07:51:57.656Z,54.04
2019-06-08T07:56:50.131Z,55.88
2019-06-08T08:01:56.171Z,56.04
2019-06-08T08:07:00.898Z,53.30
2019-06-08T08:12:04.257Z,51.63
2019-06-08T08:17:07.602Z,52.04
2019-06-08T08:22:22.043Z,50.11
2019-06-08T08:27:17.743Z,47.29
2019-06-08T08:32:20.310Z,46.76
2019-06-08T08:37:23.556Z,46.05
2019-06-08T08:42:27.051Z,46.03
2019-06-08T08:47:31.940Z,44.55
2019-06-08T08:52:38.059Z,47.41
2019-06-08T08:57:41.677Z,42.41
2019-06-08T09:02:45.806Z,42.03
2019-06-08T09:07:52.544Z,46.01
2019-06-08T09:13:01.709Z,46.71
2019-06-08T09:18:04.457Z,43.00
2019-06-08T09:23:15.656Z,42.94
2019-06-08T09:28:12.580Z,43.33
2019-06-08T09:33:18.604Z,42.80
2019-06-08T09:38:20.940Z,42.28
2019-06-08T09:43:24.393Z,43.71
2019-06-08T09:48:28.797Z,41.30
2019-06-08T09:53:37.665Z,41.91
2019-06-08T09:58:39.110Z,40.68
2019-06-08T10:03:42.509Z,42.24
2019-06-08T10:08:47.929Z,48.86
2019-06-08T10:13:50.617Z,48.16
2019-06-08T10:18:54.971Z,47.40
2019-06-08T10:24:01.039Z,41.07
2019-06-08T10:29:05.238Z,40.09
2019-06-08T10:34:11.080Z,41.30
2019-06-08T10:39:13.614Z,43.08
2019-06-08T10:44:18.271Z,42.78
2019-06-08T10:49:21.587Z,42.18
2019-06-08T10:54:24.729Z,38.29
2019-06-08T10:59:28.912Z,39.64
2019-06-08T11:04:32.450Z,37.04
2019-06-08T11:09:35.717Z,40.30
2019-06-08T11:14:40.745Z,41.09
2019-06-08T11:19:44.102Z,42.82
2019-06-08T11:24:48.536Z,41.98
2019-06-08T11:29:51.696Z,47.58
2019-06-08T11:34:54.688Z,45.81
2019-06-08T11:39:58.126Z,41.62
2019-06-08T11:45:04.439Z,38.84
2019-06-08T11:50:12.970Z,39.35
2019-06-08T11:55:14.704Z,38.42
2019-06-08T12:00:48.921Z,38.38
2019-06-08T12:05:52.286Z,37.23
2019-06-08T12:11:01.272Z,37.80
2019-06-08T12:16:01.201Z,42.61
2019-06-08T12:21:05.499Z,45.89
2019-06-08T12:26:10.125Z,39.36
2019-06-08T12:31:17.671Z,39.41
2019-06-08T12:36:20.552Z,43.38
2019-06-08T12:41:23.327Z,37.73
2019-06-08T12:46:27.997Z,38.58
2019-06-08T12:51:31.361Z,40.74
2019-06-08T12:56:37.731Z,41.48
2019-06-08T13:01:42.307Z,41.92
2019-06-08T13:06:45.396Z,43.05
2019-06-08T13:11:50.715Z,45.26
2019-06-08T13:16:53.542Z,45.63
2019-06-08T13:21:58.267Z,45.53
2019-06-08T13:27:01.624Z,45.79
2019-06-08T13:32:04.700Z,46.52
2019-06-08T13:37:08.445Z,45.76
2019-06-08T13:42:13.108Z,43.72
2019-06-08T13:47:18.621Z,43.96
2019-06-08T13:52:23.576Z,44.43
2019-06-08T13:57:26.733Z,43.08
2019-06-08T14:02:31.752Z,44.86
2019-06-08T14:07:37.887Z,46.23
2019-06-08T14:12:40.461Z,51.53
2019-06-08T14:17:43.641Z,53.38
2019-06-08T14:22:50.410Z,55.11
2019-06-08T14:27:52.314Z,56.71
2019-06-08T14:32:57.662Z,57.83
2019-06-08T14:38:01.283Z,59.10
2019-06-08T14:43:04.436Z,61.35
2019-06-08T14:48:07.612Z,61.42
2019-06-08T14:53:11.080Z,65.87
2019-06-08T14:58:14.651Z,64.89
2019-06-08T15:03:18.377Z,62.95
2019-06-08T15:08:23.634Z,61.58
2019-06-08T15:13:28.580Z,58.89
2019-06-08T15:18:31.932Z,60.09
2019-06-08T15:23:35.814Z,61.43
2019-06-08T15:28:39.018Z,60.09
2019-06-08T15:33:42.092Z,59.67
2019-06-08T15:38:47.844Z,57.81
2019-06-08T15:43:49.580Z,55.72
2019-06-08T15:48:52.665Z,56.03
2019-06-08T15:53:57.874Z,57.19
2019-06-08T15:59:00.953Z,56.69
2019-06-08T16:04:04.310Z,56.31
2019-06-08T16:09:08.727Z,55.45
2019-06-08T16:14:11.802Z,55.62
2019-06-08T16:19:14.937Z,55.40
2019-06-08T16:24:18.316Z,55.48
2019-06-08T16:29:21.412Z,54.74
2019-06-08T16:34:24.768Z,55.21
2019-06-08T16:39:28.640Z,56.31
2019-06-08T16:44:32.357Z,55.68
2019-06-08T16:49:35.996Z,56.07
2019-06-08T16:54:39.232Z,55.21
2019-06-08T16:59:42.638Z,54.46
2019-06-08T17:04:48.875Z,54.29
2019-06-08T17:09:51.548Z,55.06
2019-06-08T17:14:54.569Z,55.13
2019-06-08T17:19:57.624Z,54.31
2019-06-08T17:25:00.718Z,54.48
2019-06-08T17:30:08.386Z,54.61
2019-06-08T17:35:10.134Z,54.61
2019-06-08T17:40:13.714Z,55.29
2019-06-08T17:45:17.119Z,55.94
2019-06-08T17:50:20.302Z,56.39
2019-06-08T17:55:23.401Z,55.91
2019-06-08T18:00:26.609Z,55.61
2019-06-08T18:05:29.945Z,55.22
2019-06-08T18:10:33.785Z,54.74
2019-06-08T18:15:39.094Z,55.52
2019-06-08T18:20:42.474Z,55.41
2019-06-08T18:25:48.086Z,55.55
2019-06-08T18:30:51.496Z,56.08
2019-06-08T18:35:54.549Z,55.86
2019-06-08T18:40:57.586Z,56.11
2019-06-08T18:46:02.660Z,56.21
2019-06-08T18:51:08.331Z,56.99
2019-06-08T18:56:11.500Z,56.45
2019-06-08T19:01:14.524Z,56.96
2019-06-08T19:06:18.837Z,57.01
2019-06-08T19:11:22.557Z,57.83
2019-06-08T19:16:28.187Z,59.91
2019-06-08T19:21:30.779Z,60.21
2019-06-08T19:26:33.955Z,61.34
2019-06-08T19:31:39.003Z,60.56
2019-06-08T19:36:43.132Z,62.41
2019-06-08T19:41:50.429Z,62.09
2019-06-08T19:46:53.209Z,62.01
2019-06-08T19:51:58.054Z,61.92
2019-06-08T19:57:01.380Z,62.16
2019-06-08T20:02:04.486Z,62.06
2019-06-08T20:07:08.703Z,61.14
2019-06-08T20:12:12.116Z,61.71
2019-06-08T20:17:17.249Z,61.95
2019-06-08T20:22:20.176Z,61.79
2019-06-08T20:27:23.825Z,62.07
2019-06-08T20:32:28.193Z,62.29
2019-06-08T20:37:31.460Z,63.11
2019-06-08T20:42:34.729Z,63.84
2019-06-08T20:47:39.152Z,64.46
2019-06-08T20:52:42.455Z,64.77
2019-06-08T20:57:47.751Z,65.25
2019-06-08T21:02:51.971Z,65.65
2019-06-08T21:07:58.871Z,66.59
2019-06-08T21:13:00.858Z,66.72
2019-06-08T21:18:03.961Z,66.83
2019-06-08T21:23:08.168Z,67.34
2019-06-08T21:28:11.482Z,67.84
2019-06-08T21:33:14.560Z,67.50
2019-06-08T21:38:23.710Z,66.47
2019-06-08T21:43:22.626Z,67.99
2019-06-08T21:48:27.505Z,67.30
2019-06-08T21:53:30.764Z,67.04
2019-06-08T21:58:33.964Z,67.30
2019-06-08T22:03:38.073Z,67.23
2019-06-08T22:08:41.354Z,67.20
2019-06-08T22:13:44.477Z,66.65
2019-06-08T22:18:47.622Z,66.76
2019-06-08T22:23:51.835Z,66.45
2019-06-08T22:28:55.423Z,66.18
2019-06-08T22:34:00.777Z,66.79
2019-06-08T22:39:07.862Z,65.25
2019-06-08T22:44:10.314Z,65.56
2019-06-08T22:49:15.339Z,65.83
2019-06-08T22:54:18.371Z,67.07
2019-06-08T22:59:21.494Z,68.10
2019-06-08T23:04:24.566Z,68.14
2019-06-08T23:09:28.366Z,67.90
2019-06-08T23:14:31.819Z,67.00
2019-06-08T23:19:37.240Z,65.51
2019-06-08T23:24:39.914Z,65.71
2019-06-08T23:29:42.927Z,66.37
2019-06-08T23:34:47.813Z,65.45
2019-06-08T23:39:51.086Z,65.30
2019-06-08T23:44:54.568Z,64.97
2019-06-08T23:49:59.525Z,64.19
2019-06-08T23:55:03.792Z,65.05
